Time;durP1;ratioP1;P1;durP2;ratioP2;P2;SDS_P1;SDS_P2;PMS_P1;PMS_P2;Temp;Humidity;BMP_temperature;BMP_pressure;BME280_temperature;BME280_humidity;BME280_pressure;Samples;Min_cycle;Max_cycle;Signal;HPM_P1;HPM_P2
2024/03/18 00:00:46;;;;;;;5.07;3.72;;;;;;;;;;6243896;22;20179;-49
2024/03/18 00:03:14;;;;;;;4.75;4.35;;;;;;;;;;6243607;22;20180;-51
2024/03/18 00:05:41;;;;;;;4.75;4.35;;;;;;;;;;6243203;22;20249;-50
2024/03/18 00:08:10;;;;;;;3.70;3.40;;;;;;;;;;6243329;22;20197;-50
2024/03/18 00:10:37;;;;;;;4.72;4.22;;;;;;;;;;6243962;22;20256;-48
2024/03/18 00:13:05;;;;;;;5.35;4.15;;;;;;;;;;6243462;22;20636;-48
2024/03/18 00:15:32;;;;;;;4.65;3.85;;;;;;;;;;6243655;22;20197;-48
2024/03/18 00:18:00;;;;;;;4.10;3.70;;;;;;;;;;6243788;22;20199;-48
2024/03/18 00:20:27;;;;;;;4.72;4.20;;;;;;;;;;6243214;22;20252;-52
2024/03/18 00:22:55;;;;;;;5.68;4.13;;;;;;;;;;6243533;22;20208;-51
2024/03/18 00:25:24;;;;;;;3.80;3.45;;;;;;;;;;6243873;22;20514;-52
2024/03/18 00:27:51;;;;;;;5.22;4.60;;;;;;;;;;6243789;22;20201;-52
2024/03/18 00:30:20;;;;;;;4.82;4.10;;;;;;;;;;6243348;22;20497;-53
2024/03/18 00:32:46;;;;;;;6.03;4.13;;;;;;;;;;6243785;23;20177;-52
2024/03/18 00:35:15;;;;;;;4.43;4.03;;;;;;;;;;6243350;22;20250;-50
2024/03/18 00:37:42;;;;;;;4.22;3.80;;;;;;;;;;6243302;22;20575;-49
2024/03/18 00:40:11;;;;;;;5.07;4.47;;;;;;;;;;6243455;22;20173;-51
2024/03/18 00:42:39;;;;;;;7.00;4.65;;;;;;;;;;6243149;22;20173;-50
2024/03/18 00:45:10;;;;;;;4.32;3.92;;;;;;;;;;6243046;22;20626;-48
2024/03/18 00:47:37;;;;;;;4.05;3.67;;;;;;;;;;6243458;23;20201;-51
2024/03/18 00:50:10;;;;;;;4.45;3.85;;;;;;;;;;6243366;22;20648;-50
2024/03/18 00:52:38;;;;;;;3.97;3.67;;;;;;;;;;6243594;23;20164;-52
2024/03/18 00:55:10;;;;;;;4.78;3.95;;;;;;;;;;6243254;23;20260;-49
2024/03/18 00:57:39;;;;;;;5.03;4.53;;;;;;;;;;6244148;22;20228;-49
2024/03/18 01:00:11;;;;;;;4.07;3.67;;;;;;;;;;6243968;23;20498;-49
2024/03/18 01:02:39;;;;;;;4.95;4.45;;;;;;;;;;6243352;23;20197;-48
2024/03/18 01:05:10;;;;;;;7.20;4.85;;;;;;;;;;6243508;23;20300;-53
2024/03/18 01:07:39;;;;;;;5.03;4.53;;;;;;;;;;6243419;22;20197;-51
2024/03/18 01:10:08;;;;;;;4.45;4.05;;;;;;;;;;6243806;23;20174;-50
2024/03/18 01:12:36;;;;;;;7.25;5.35;;;;;;;;;;6243441;22;20626;-52
2024/03/18 01:15:07;;;;;;;5.72;5.13;;;;;;;;;;6242971;22;20780;-49
2024/03/18 01:17:35;;;;;;;6.25;5.43;;;;;;;;;;6243286;23;20207;-49
2024/03/18 01:20:08;;;;;;;5.63;4.88;;;;;;;;;;6242993;22;20180;-49
2024/03/18 01:22:36;;;;;;;5.10;4.68;;;;;;;;;;6243516;23;20161;-50
2024/03/18 01:25:03;;;;;;;5.05;4.65;;;;;;;;;;6243465;22;20618;-48
2024/03/18 01:27:31;;;;;;;5.85;4.88;;;;;;;;;;6242873;22;20208;-50
2024/03/18 01:29:58;;;;;;;9.15;6.45;;;;;;;;;;6243009;22;20172;-49
2024/03/18 01:32:27;;;;;;;5.10;4.32;;;;;;;;;;6244060;22;20232;-53
2024/03/18 01:34:54;;;;;;;5.20;4.63;;;;;;;;;;6245263;22;20689;-48
2024/03/18 01:37:22;;;;;;;4.72;4.25;;;;;;;;;;6244627;22;20205;-49
2024/03/18 01:39:49;;;;;;;6.32;5.28;;;;;;;;;;6244987;22;20259;-48
2024/03/18 01:42:17;;;;;;;4.70;4.30;;;;;;;;;;6244552;22;20180;-48
2024/03/18 01:44:54;;;;;;;5.82;4.45;;;;;;;;;;6245332;22;20236;-48
2024/03/18 01:47:22;;;;;;;4.15;3.75;;;;;;;;;;6245330;23;20189;-49
2024/03/18 01:49:53;;;;;;;5.57;5.07;;;;;;;;;;6245535;23;20256;-50
2024/03/18 01:52:21;;;;;;;4.38;3.97;;;;;;;;;;6244601;22;20173;-53
2024/03/18 01:54:49;;;;;;;4.68;4.28;;;;;;;;;;6245009;22;20181;-50
2024/03/18 01:57:16;;;;;;;4.30;3.90;;;;;;;;;;6244991;22;20538;-52
2024/03/18 01:59:44;;;;;;;4.40;3.65;;;;;;;;;;6245322;22;20173;-51
2024/03/18 02:02:12;;;;;;;5.25;4.50;;;;;;;;;;6244901;23;20180;-50
2024/03/18 02:04:40;;;;;;;6.80;4.60;;;;;;;;;;6244695;22;20180;-51
2024/03/18 02:07:22;;;;;;;5.22;4.43;;;;;;;;;;6244436;22;20259;-50
2024/03/18 02:09:49;;;;;;;3.60;3.30;;;;;;;;;;6245367;23;20158;-49
2024/03/18 02:12:17;;;;;;;3.83;3.47;;;;;;;;;;6244721;22;20183;-52
2024/03/18 02:14:50;;;;;;;4.88;4.47;;;;;;;;;;6245844;22;20205;-53
2024/03/18 02:17:18;;;;;;;4.82;4.05;;;;;;;;;;6245469;23;20201;-53
2024/03/18 02:19:45;;;;;;;4.53;4.05;;;;;;;;;;6245900;22;20637;-47
2024/03/18 02:22:14;;;;;;;4.75;4.35;;;;;;;;;;6245449;22;20181;-50
2024/03/18 02:24:42;;;;;;;3.63;3.33;;;;;;;;;;6246034;22;20626;-48
2024/03/18 02:27:12;;;;;;;3.45;3.15;;;;;;;;;;6245227;23;20232;-50
2024/03/18 02:29:39;;;;;;;4.25;3.88;;;;;;;;;;6244879;22;20177;-50
2024/03/18 02:32:07;;;;;;;4.18;3.50;;;;;;;;;;6245031;22;20622;-46
2024/03/18 02:34:35;;;;;;;3.25;3.00;;;;;;;;;;6245246;22;20648;-49
2024/03/18 02:37:03;;;;;;;3.72;3.42;;;;;;;;;;6244598;22;20724;-46
2024/03/18 02:39:32;;;;;;;4.22;3.83;;;;;;;;;;6244817;22;20174;-46
2024/03/18 02:42:00;;;;;;;3.33;3.03;;;;;;;;;;6245066;22;20615;-46
2024/03/18 02:44:28;;;;;;;3.63;3.33;;;;;;;;;;6244723;23;20180;-47
2024/03/18 02:46:55;;;;;;;4.20;3.80;;;;;;;;;;6244561;22;20169;-47
2024/03/18 02:49:22;;;;;;;3.72;3.42;;;;;;;;;;6244956;22;20177;-47
2024/03/18 02:51:50;;;;;;;4.30;3.42;;;;;;;;;;6244700;22;20203;-47
2024/03/18 02:54:17;;;;;;;3.70;3.40;;;;;;;;;;6244583;22;20192;-47
2024/03/18 02:56:46;;;;;;;5.05;4.13;;;;;;;;;;6244754;22;20284;-47
2024/03/18 02:59:14;;;;;;;4.53;4.15;;;;;;;;;;6244733;22;20180;-49
2024/03/18 03:01:41;;;;;;;6.72;4.45;;;;;;;;;;6244683;22;20707;-47
2024/03/18 03:04:09;;;;;;;4.85;4.45;;;;;;;;;;6244641;22;20173;-48
2024/03/18 03:06:36;;;;;;;7.10;4.45;;;;;;;;;;6244740;22;20275;-48
2024/03/18 03:09:03;;;;;;;4.55;4.15;;;;;;;;;;6244367;22;20193;-51
2024/03/18 03:11:31;;;;;;;4.35;3.95;;;;;;;;;;6244611;22;20176;-50
2024/03/18 03:14:00;;;;;;;4.35;3.95;;;;;;;;;;6244221;22;20200;-49
2024/03/18 03:16:27;;;;;;;4.45;4.07;;;;;;;;;;6244593;22;20653;-47
2024/03/18 03:18:55;;;;;;;4.97;4.57;;;;;;;;;;6243949;22;20193;-49
2024/03/18 03:21:22;;;;;;;5.20;4.70;;;;;;;;;;6244497;22;20180;-47
2024/03/18 03:23:50;;;;;;;5.45;4.90;;;;;;;;;;6244617;22;20235;-46
2024/03/18 03:26:18;;;;;;;5.28;4.45;;;;;;;;;;6244460;22;20230;-47
2024/03/18 03:28:46;;;;;;;5.50;5.00;;;;;;;;;;6244393;22;20582;-45
2024/03/18 03:31:15;;;;;;;7.07;4.40;;;;;;;;;;6244227;22;20173;-47
2024/03/18 03:33:43;;;;;;;4.82;4.40;;;;;;;;;;6244840;22;20173;-47
2024/03/18 03:36:11;;;;;;;4.85;4.40;;;;;;;;;;6244475;22;20177;-49
2024/03/18 03:38:39;;;;;;;5.45;4.70;;;;;;;;;;6244639;23;20201;-47
2024/03/18 03:41:07;;;;;;;6.85;5.22;;;;;;;;;;6243666;22;20653;-47
2024/03/18 03:43:34;;;;;;;5.00;4.50;;;;;;;;;;6243919;22;20275;-50
2024/03/18 03:46:02;;;;;;;5.18;4.75;;;;;;;;;;6244439;22;20185;-47
2024/03/18 03:48:31;;;;;;;5.05;4.57;;;;;;;;;;6244281;22;20193;-47
2024/03/18 03:50:59;;;;;;;5.55;4.22;;;;;;;;;;6244201;22;20173;-50
2024/03/18 03:53:27;;;;;;;5.45;4.75;;;;;;;;;;6244286;22;20187;-49
2024/03/18 03:55:56;;;;;;;4.93;4.53;;;;;;;;;;6244489;23;20227;-49
2024/03/18 03:58:25;;;;;;;4.95;4.45;;;;;;;;;;6244321;23;20201;-48
2024/03/18 04:00:52;;;;;;;5.40;4.95;;;;;;;;;;6244263;22;20226;-49
2024/03/18 04:03:22;;;;;;;4.72;4.28;;;;;;;;;;6240148;23;20176;-51
2024/03/18 04:05:54;;;;;;;5.35;4.07;;;;;;;;;;6244058;23;20188;-50
2024/03/18 04:08:21;;;;;;;4.10;3.80;;;;;;;;;;6243884;23;20243;-52
2024/03/18 04:10:49;;;;;;;3.40;3.10;;;;;;;;;;6243638;22;20258;-49
2024/03/18 04:13:17;;;;;;;3.50;3.20;;;;;;;;;;6242870;22;20177;-49
2024/03/18 04:15:45;;;;;;;4.30;3.90;;;;;;;;;;6243411;22;20177;-51
2024/03/18 04:18:12;;;;;;;4.68;4.28;;;;;;;;;;6242973;22;20201;-49
2024/03/18 04:20:40;;;;;;;4.68;3.65;;;;;;;;;;6243756;22;20177;-48
2024/03/18 04:23:09;;;;;;;4.00;3.65;;;;;;;;;;6243158;22;20177;-49
2024/03/18 04:25:37;;;;;;;3.33;3.03;;;;;;;;;;6243769;22;20176;-52
2024/03/18 04:28:07;;;;;;;3.95;3.35;;;;;;;;;;6243578;22;20189;-50
2024/03/18 04:30:36;;;;;;;2.83;2.63;;;;;;;;;;6243564;23;20227;-52
2024/03/18 04:33:06;;;;;;;3.30;3.00;;;;;;;;;;6243524;23;20177;-50
2024/03/18 04:35:34;;;;;;;5.15;3.45;;;;;;;;;;6243328;23;20179;-48
2024/03/18 04:38:01;;;;;;;3.47;3.17;;;;;;;;;;6243491;22;20207;-48
2024/03/18 04:40:30;;;;;;;3.05;2.75;;;;;;;;;;6242917;22;20261;-50
2024/03/18 04:42:58;;;;;;;4.15;3.75;;;;;;;;;;6242791;22;20180;-49
2024/03/18 04:45:26;;;;;;;4.10;3.70;;;;;;;;;;6243545;22;20173;-53
2024/03/18 04:47:54;;;;;;;4.20;3.42;;;;;;;;;;6243720;23;20247;-48
2024/03/18 04:50:24;;;;;;;4.78;4.38;;;;;;;;;;6243369;22;20180;-49
2024/03/18 04:52:54;;;;;;;3.20;2.90;;;;;;;;;;6243196;23;20173;-52
2024/03/18 04:55:22;;;;;;;3.45;3.15;;;;;;;;;;6243351;23;20161;-48
2024/03/18 04:57:55;;;;;;;3.22;2.92;;;;;;;;;;6243583;23;20556;-51
2024/03/18 05:00:25;;;;;;;2.95;2.72;;;;;;;;;;6243458;23;20168;-50
2024/03/18 05:02:52;;;;;;;3.20;3.00;;;;;;;;;;6243528;22;20177;-50
2024/03/18 05:05:20;;;;;;;3.97;2.92;;;;;;;;;;6243042;22;20528;-48
2024/03/18 05:07:49;;;;;;;3.40;3.10;;;;;;;;;;6245129;23;20193;-49
2024/03/18 05:10:21;;;;;;;3.50;3.20;;;;;;;;;;6245248;23;20181;-48
2024/03/18 05:12:49;;;;;;;2.65;2.45;;;;;;;;;;6245592;23;20162;-50
2024/03/18 05:15:18;;;;;;;3.67;3.38;;;;;;;;;;6245546;23;21085;-49
2024/03/18 05:17:45;;;;;;;3.13;2.85;;;;;;;;;;6245000;22;20204;-50
2024/03/18 05:20:13;;;;;;;3.15;2.90;;;;;;;;;;6244962;22;20181;-52
2024/03/18 05:22:40;;;;;;;2.95;2.65;;;;;;;;;;6244909;22;20192;-49
2024/03/18 05:25:12;;;;;;;2.80;2.60;;;;;;;;;;6244807;22;20257;-49
2024/03/18 05:27:40;;;;;;;2.72;2.53;;;;;;;;;;6245737;22;20278;-49
2024/03/18 05:30:09;;;;;;;5.47;2.95;;;;;;;;;;6245203;22;20256;-49
2024/03/18 05:32:38;;;;;;;2.67;2.47;;;;;;;;;;6244656;22;20231;-54
2024/03/18 05:35:06;;;;;;;2.83;2.63;;;;;;;;;;6244919;22;20204;-50
2024/03/18 05:37:34;;;;;;;2.92;2.72;;;;;;;;;;6245342;22;20507;-49
2024/03/18 05:40:03;;;;;;;2.88;2.60;;;;;;;;;;6245175;22;20222;-51
2024/03/18 05:42:32;;;;;;;3.25;2.95;;;;;;;;;;6245329;23;20173;-48
2024/03/18 05:44:59;;;;;;;3.67;3.38;;;;;;;;;;6245643;22;20184;-50
2024/03/18 05:47:27;;;;;;;3.20;2.90;;;;;;;;;;6245461;22;20193;-47
2024/03/18 05:49:56;;;;;;;3.60;2.58;;;;;;;;;;6245355;22;20580;-46
2024/03/18 05:52:25;;;;;;;3.63;3.03;;;;;;;;;;6245515;22;20697;-46
2024/03/18 05:54:52;;;;;;;4.45;3.47;;;;;;;;;;6245260;22;20220;-47
2024/03/18 05:57:19;;;;;;;4.97;4.40;;;;;;;;;;6245355;22;20200;-47
2024/03/18 05:59:47;;;;;;;5.78;4.28;;;;;;;;;;6245555;22;20537;-46
2024/03/18 06:02:14;;;;;;;4.70;4.25;;;;;;;;;;6245390;22;20180;-48
2024/03/18 06:04:42;;;;;;;6.75;4.43;;;;;;;;;;6244930;22;20634;-46
2024/03/18 06:07:11;;;;;;;7.22;5.07;;;;;;;;;;6244906;22;20225;-47
2024/03/18 06:09:38;;;;;;;6.13;5.47;;;;;;;;;;6245538;22;20177;-49
2024/03/18 06:12:06;;;;;;;5.28;4.65;;;;;;;;;;6244661;22;20177;-49
2024/03/18 06:14:34;;;;;;;5.10;4.60;;;;;;;;;;6245027;22;20173;-45
2024/03/18 06:17:01;;;;;;;5.35;4.85;;;;;;;;;;6244097;22;20193;-48
2024/03/18 06:19:33;;;;;;;4.85;4.35;;;;;;;;;;6244643;22;20197;-49
2024/03/18 06:22:05;;;;;;;5.32;4.68;;;;;;;;;;6245398;23;20642;-48
2024/03/18 06:27:15;;;;;;;6.38;4.70;;;;;;;;;;6244689;23;20193;-51
2024/03/18 06:29:43;;;;;;;4.90;4.43;;;;;;;;;;6245486;22;20169;-47
2024/03/18 06:32:11;;;;;;;4.53;3.92;;;;;;;;;;6245219;22;20231;-48
2024/03/18 06:34:38;;;;;;;4.40;4.05;;;;;;;;;;6245183;22;20180;-47
2024/03/18 06:37:06;;;;;;;5.50;5.00;;;;;;;;;;6244898;22;20199;-49
2024/03/18 06:39:35;;;;;;;6.80;5.03;;;;;;;;;;6244772;22;20231;-48
2024/03/18 06:42:02;;;;;;;4.60;4.18;;;;;;;;;;6244402;22;20173;-48
2024/03/18 06:44:30;;;;;;;4.47;4.07;;;;;;;;;;6244689;22;20177;-48
2024/03/18 06:46:58;;;;;;;5.05;4.07;;;;;;;;;;6245102;23;20223;-48
2024/03/18 06:49:25;;;;;;;4.88;4.25;;;;;;;;;;6245187;22;20252;-48
2024/03/18 06:51:53;;;;;;;5.05;4.50;;;;;;;;;;6245048;22;20183;-48
2024/03/18 06:54:20;;;;;;;4.82;4.10;;;;;;;;;;6244626;22;20189;-47
2024/03/18 06:56:49;;;;;;;4.43;3.58;;;;;;;;;;6244749;22;20645;-48
2024/03/18 06:59:16;;;;;;;4.68;3.88;;;;;;;;;;6244795;22;20200;-48
2024/03/18 07:01:43;;;;;;;4.75;4.30;;;;;;;;;;6244795;22;20645;-46
2024/03/18 07:04:11;;;;;;;4.20;3.80;;;;;;;;;;6244524;22;20523;-48
2024/03/18 07:06:38;;;;;;;7.03;4.70;;;;;;;;;;6244364;22;20180;-47
2024/03/18 07:09:07;;;;;;;4.68;4.28;;;;;;;;;;6244153;22;20169;-47
2024/03/18 07:11:34;;;;;;;4.40;4.00;;;;;;;;;;6245087;23;20180;-48
2024/03/18 07:14:03;;;;;;;6.25;4.95;;;;;;;;;;6244903;22;20180;-48
2024/03/18 07:16:30;;;;;;;5.68;4.47;;;;;;;;;;6244486;22;20208;-49
2024/03/18 07:18:58;;;;;;;6.93;5.03;;;;;;;;;;6243852;22;20201;-49
2024/03/18 07:21:25;;;;;;;5.22;4.72;;;;;;;;;;6245064;22;20648;-50
2024/03/18 07:23:53;;;;;;;5.28;4.78;;;;;;;;;;6244981;22;20173;-48
2024/03/18 07:26:22;;;;;;;6.22;5.25;;;;;;;;;;6244036;22;20579;-46
2024/03/18 07:28:49;;;;;;;7.30;5.68;;;;;;;;;;6244177;23;20243;-47
2024/03/18 07:31:18;;;;;;;7.82;5.72;;;;;;;;;;6244593;23;20184;-48
2024/03/18 07:33:46;;;;;;;5.75;5.15;;;;;;;;;;6244742;22;20177;-47
2024/03/18 07:36:14;;;;;;;7.25;5.55;;;;;;;;;;6244103;22;20173;-49
2024/03/18 07:38:41;;;;;;;8.18;5.97;;;;;;;;;;6244442;22;20308;-47
2024/03/18 07:41:08;;;;;;;5.53;4.60;;;;;;;;;;6243719;22;20204;-47
2024/03/18 07:43:36;;;;;;;4.90;4.40;;;;;;;;;;6244505;22;20255;-47
2024/03/18 07:46:04;;;;;;;6.78;5.50;;;;;;;;;;6244078;22;20196;-47
2024/03/18 07:48:32;;;;;;;8.35;5.85;;;;;;;;;;6243920;22;20710;-48
2024/03/18 07:51:02;;;;;;;7.38;6.63;;;;;;;;;;6244405;22;20169;-47
2024/03/18 07:53:29;;;;;;;7.45;6.30;;;;;;;;;;6244499;22;20181;-48
2024/03/18 07:56:01;;;;;;;5.82;5.20;;;;;;;;;;6244203;22;20614;-47
2024/03/18 07:58:29;;;;;;;6.65;5.47;;;;;;;;;;6244482;23;20196;-47
2024/03/18 08:00:56;;;;;;;8.82;5.13;;;;;;;;;;6244070;22;20200;-47
2024/03/18 08:03:24;;;;;;;6.13;5.53;;;;;;;;;;6243556;22;20183;-47
2024/03/18 08:05:53;;;;;;;7.15;5.72;;;;;;;;;;6243915;22;20169;-49
2024/03/18 08:08:20;;;;;;;8.27;6.03;;;;;;;;;;6244424;23;20228;-48
2024/03/18 08:10:48;;;;;;;5.72;5.18;;;;;;;;;;6243980;23;20205;-47
2024/03/18 08:13:15;;;;;;;6.70;6.00;;;;;;;;;;6243938;22;20192;-47
2024/03/18 08:15:47;;;;;;;5.85;5.35;;;;;;;;;;6243938;22;20264;-48
2024/03/18 08:18:15;;;;;;;5.63;5.13;;;;;;;;;;6244308;23;20565;-47
2024/03/18 08:20:43;;;;;;;6.43;5.82;;;;;;;;;;6244424;23;20193;-47
2024/03/18 08:23:11;;;;;;;6.65;5.95;;;;;;;;;;6244215;22;20173;-47
2024/03/18 08:25:39;;;;;;;6.57;5.88;;;;;;;;;;6243733;22;20180;-48
2024/03/18 08:28:07;;;;;;;8.77;6.40;;;;;;;;;;6243762;22;20627;-47
2024/03/18 08:30:34;;;;;;;8.40;7.57;;;;;;;;;;6244044;22;20169;-47
2024/03/18 08:33:01;;;;;;;7.18;5.78;;;;;;;;;;6244348;22;20182;-48
2024/03/18 08:35:29;;;;;;;7.28;6.57;;;;;;;;;;6242994;22;20173;-47
2024/03/18 08:37:57;;;;;;;6.75;6.07;;;;;;;;;;6242808;22;20193;-47
2024/03/18 08:40:26;;;;;;;7.68;6.88;;;;;;;;;;6244078;22;20235;-48
2024/03/18 08:42:53;;;;;;;8.63;6.50;;;;;;;;;;6246230;22;20767;-49
2024/03/18 08:45:21;;;;;;;6.80;5.90;;;;;;;;;;6246031;22;20179;-47
2024/03/18 08:47:49;;;;;;;6.72;6.03;;;;;;;;;;6245934;22;20193;-47
2024/03/18 08:50:17;;;;;;;10.75;7.28;;;;;;;;;;6246085;23;20173;-47
2024/03/18 08:52:44;;;;;;;10.05;7.13;;;;;;;;;;6246348;22;20177;-48
2024/03/18 08:55:12;;;;;;;9.73;6.65;;;;;;;;;;6246140;22;20252;-45
2024/03/18 08:57:40;;;;;;;7.25;6.55;;;;;;;;;;6246045;22;20200;-46
2024/03/18 09:00:10;;;;;;;9.80;7.30;;;;;;;;;;6246614;22;20196;-50
2024/03/18 09:02:39;;;;;;;7.88;6.35;;;;;;;;;;6246767;23;20169;-48
2024/03/18 09:05:07;;;;;;;7.07;6.38;;;;;;;;;;6246026;22;20676;-50
2024/03/18 09:07:35;;;;;;;6.50;5.90;;;;;;;;;;6245741;22;20583;-49
2024/03/18 09:10:02;;;;;;;8.48;6.40;;;;;;;;;;6245811;22;20175;-47
2024/03/18 09:12:30;;;;;;;6.82;6.20;;;;;;;;;;6244689;22;20648;-48
2024/03/18 09:14:59;;;;;;;7.20;6.22;;;;;;;;;;6245223;22;20252;-49
2024/03/18 09:17:26;;;;;;;6.78;6.05;;;;;;;;;;6244830;22;20197;-49
2024/03/18 09:19:54;;;;;;;6.93;6.00;;;;;;;;;;6245830;22;20674;-52
2024/03/18 09:22:21;;;;;;;7.43;6.60;;;;;;;;;;6245067;22;20173;-53
2024/03/18 09:24:48;;;;;;;6.50;5.93;;;;;;;;;;6245233;22;20551;-53
2024/03/18 09:27:16;;;;;;;6.70;4.95;;;;;;;;;;6244647;22;20277;-50
2024/03/18 09:29:45;;;;;;;7.45;5.88;;;;;;;;;;6245278;22;20181;-49
2024/03/18 09:32:14;;;;;;;5.80;5.20;;;;;;;;;;6245540;23;20173;-49
2024/03/18 09:34:42;;;;;;;4.53;4.10;;;;;;;;;;6245293;22;20177;-49
2024/03/18 09:37:10;;;;;;;5.85;5.20;;;;;;;;;;6245393;22;20199;-50
2024/03/18 09:39:38;;;;;;;5.97;5.38;;;;;;;;;;6245465;22;20178;-50
2024/03/18 09:42:06;;;;;;;6.60;5.70;;;;;;;;;;6244810;23;20197;-50
2024/03/18 09:44:35;;;;;;;5.85;5.25;;;;;;;;;;6245733;23;20199;-51
2024/03/18 09:47:03;;;;;;;5.18;4.57;;;;;;;;;;6245508;23;20197;-53
2024/03/18 09:49:32;;;;;;;4.97;4.20;;;;;;;;;;6245593;23;20177;-53
2024/03/18 09:52:00;;;;;;;4.22;3.80;;;;;;;;;;6244774;22;20169;-52
2024/03/18 09:54:28;;;;;;;6.10;4.78;;;;;;;;;;6244958;22;20524;-53
2024/03/18 09:57:00;;;;;;;5.80;5.20;;;;;;;;;;6244594;22;20256;-54
2024/03/18 09:59:27;;;;;;;6.68;5.68;;;;;;;;;;6245565;23;20185;-54
2024/03/18 10:01:55;;;;;;;8.43;6.07;;;;;;;;;;6244247;22;20306;-52
2024/03/18 10:04:22;;;;;;;6.30;5.03;;;;;;;;;;6244290;22;20200;-54
2024/03/18 10:06:53;;;;;;;4.20;3.80;;;;;;;;;;6244869;22;20173;-53
2024/03/18 10:09:22;;;;;;;4.90;4.32;;;;;;;;;;6245005;22;20512;-49
2024/03/18 10:11:50;;;;;;;5.32;4.82;;;;;;;;;;6244277;23;20173;-54
2024/03/18 10:14:18;;;;;;;6.80;5.60;;;;;;;;;;6244871;22;20506;-55
2024/03/18 10:16:45;;;;;;;5.28;3.88;;;;;;;;;;6244485;22;20176;-55
2024/03/18 10:19:16;;;;;;;4.53;4.13;;;;;;;;;;6244710;22;20491;-52
2024/03/18 10:21:44;;;;;;;4.85;4.45;;;;;;;;;;6244854;22;20230;-54
2024/03/18 10:24:14;;;;;;;5.30;4.88;;;;;;;;;;6244619;22;20223;-51
2024/03/18 10:26:44;;;;;;;5.20;4.22;;;;;;;;;;6244427;22;20173;-49
2024/03/18 10:29:12;;;;;;;4.65;4.25;;;;;;;;;;6245615;23;20510;-51
2024/03/18 10:31:40;;;;;;;5.72;5.10;;;;;;;;;;6244839;23;20177;-53
2024/03/18 10:34:08;;;;;;;5.65;5.10;;;;;;;;;;6244871;22;20641;-51
2024/03/18 10:36:37;;;;;;;5.30;4.55;;;;;;;;;;6245120;23;20197;-49
2024/03/18 10:39:07;;;;;;;5.03;4.50;;;;;;;;;;6244325;22;20193;-51
2024/03/18 10:41:39;;;;;;;4.60;3.78;;;;;;;;;;6244732;23;20187;-53
2024/03/18 10:44:17;;;;;;;4.60;4.20;;;;;;;;;;6244162;23;20618;-51
2024/03/18 10:46:45;;;;;;;3.72;3.35;;;;;;;;;;6243463;23;20192;-53
2024/03/18 10:49:17;;;;;;;4.47;4.07;;;;;;;;;;6243034;23;20565;-52
2024/03/18 10:51:47;;;;;;;4.97;4.43;;;;;;;;;;6243995;23;20161;-48
2024/03/18 10:54:16;;;;;;;6.00;5.40;;;;;;;;;;6244526;23;20540;-49
2024/03/18 10:56:46;;;;;;;6.65;5.70;;;;;;;;;;6244463;22;20177;-51
2024/03/18 10:59:17;;;;;;;4.22;3.92;;;;;;;;;;6244748;22;20521;-48
2024/03/18 11:01:45;;;;;;;4.20;3.80;;;;;;;;;;6243986;23;20187;-51
2024/03/18 11:04:25;;;;;;;3.97;3.55;;;;;;;;;;6244133;23;20514;-52
2024/03/18 11:06:56;;;;;;;5.35;4.53;;;;;;;;;;6244760;22;20168;-51
2024/03/18 11:09:25;;;;;;;5.00;4.43;;;;;;;;;;6244606;23;20507;-51
2024/03/18 11:11:54;;;;;;;7.47;4.55;;;;;;;;;;6243839;22;20176;-49
2024/03/18 11:14:25;;;;;;;5.47;4.53;;;;;;;;;;6243692;22;20260;-49
2024/03/18 11:16:54;;;;;;;4.25;3.85;;;;;;;;;;6244538;23;20562;-52
2024/03/18 11:19:26;;;;;;;6.65;4.22;;;;;;;;;;6244401;23;20173;-51
2024/03/18 11:22:00;;;;;;;4.60;3.65;;;;;;;;;;6243927;22;20272;-49
2024/03/18 11:24:31;;;;;;;4.78;4.28;;;;;;;;;;6243881;22;20660;-50
2024/03/18 11:27:01;;;;;;;3.65;3.35;;;;;;;;;;6244055;23;20157;-52
2024/03/18 11:29:39;;;;;;;4.85;4.45;;;;;;;;;;6244148;23;20212;-49
2024/03/18 11:32:11;;;;;;;5.25;3.85;;;;;;;;;;6243735;23;20167;-51
2024/03/18 11:34:41;;;;;;;5.78;4.28;;;;;;;;;;6244068;23;20165;-49
2024/03/18 11:37:11;;;;;;;3.85;3.55;;;;;;;;;;6244123;23;20602;-50
2024/03/18 11:39:39;;;;;;;4.22;3.83;;;;;;;;;;6244667;23;20175;-49
2024/03/18 11:42:08;;;;;;;4.35;3.95;;;;;;;;;;6243747;22;20197;-50
2024/03/18 11:44:36;;;;;;;4.20;3.80;;;;;;;;;;6244150;22;20181;-53
2024/03/18 11:47:05;;;;;;;3.38;3.17;;;;;;;;;;6243610;22;20531;-50
2024/03/18 11:49:33;;;;;;;4.07;3.72;;;;;;;;;;6244262;23;20200;-53
2024/03/18 11:52:01;;;;;;;7.43;5.00;;;;;;;;;;6244166;23;20483;-51
2024/03/18 11:54:30;;;;;;;4.97;4.43;;;;;;;;;;6243517;22;20181;-50
2024/03/18 11:57:02;;;;;;;5.20;4.55;;;;;;;;;;6243841;23;20173;-52
2024/03/18 11:59:31;;;;;;;5.47;4.28;;;;;;;;;;6243956;23;20161;-50
2024/03/18 12:02:02;;;;;;;3.65;3.05;;;;;;;;;;6243870;23;20201;-50
2024/03/18 12:04:30;;;;;;;3.88;3.50;;;;;;;;;;6243699;23;20200;-53
2024/03/18 12:06:57;;;;;;;3.83;3.53;;;;;;;;;;6243558;22;20172;-50
2024/03/18 12:09:27;;;;;;;3.95;3.20;;;;;;;;;;6243529;22;20188;-52
2024/03/18 12:11:55;;;;;;;3.65;3.35;;;;;;;;;;6243798;23;20571;-50
2024/03/18 12:14:23;;;;;;;3.10;2.80;;;;;;;;;;6243745;22;20180;-52
2024/03/18 12:16:57;;;;;;;4.13;3.72;;;;;;;;;;6243701;22;20618;-49
2024/03/18 12:19:26;;;;;;;3.38;3.08;;;;;;;;;;6244018;23;20192;-49
2024/03/18 12:21:54;;;;;;;5.07;4.22;;;;;;;;;;6244150;23;20255;-55
2024/03/18 12:29:58;;;;;;;4.10;3.70;;;;;;;;;;6244551;23;20164;-49
2024/03/18 12:32:27;;;;;;;4.32;3.85;;;;;;;;;;6244813;23;20472;-49
2024/03/18 12:34:54;;;;;;;3.92;3.63;;;;;;;;;;6243699;22;20172;-50
2024/03/18 12:37:22;;;;;;;4.50;4.10;;;;;;;;;;6243359;22;20224;-51
2024/03/18 12:39:50;;;;;;;4.70;4.30;;;;;;;;;;6243083;22;20204;-53
2024/03/18 12:42:17;;;;;;;3.75;3.28;;;;;;;;;;6243441;22;20732;-52
2024/03/18 12:44:45;;;;;;;4.15;3.65;;;;;;;;;;6243845;22;20177;-54
2024/03/18 12:47:12;;;;;;;3.92;3.60;;;;;;;;;;6243346;22;20538;-50
2024/03/18 12:49:41;;;;;;;8.80;5.72;;;;;;;;;;6243050;22;20173;-52
2024/03/18 12:52:10;;;;;;;5.38;4.53;;;;;;;;;;6243577;22;20173;-54
2024/03/18 12:54:39;;;;;;;6.32;5.72;;;;;;;;;;6243415;22;20195;-54
2024/03/18 12:57:07;;;;;;;5.78;4.65;;;;;;;;;;6243809;23;20252;-50
2024/03/18 12:59:35;;;;;;;4.85;4.35;;;;;;;;;;6243842;22;20173;-55
2024/03/18 13:02:04;;;;;;;3.63;3.33;;;;;;;;;;6243641;23;20637;-55
2024/03/18 13:04:31;;;;;;;4.20;3.80;;;;;;;;;;6243894;22;20260;-54
2024/03/18 13:07:00;;;;;;;4.80;4.35;;;;;;;;;;6243432;22;20260;-54
2024/03/18 13:09:27;;;;;;;5.63;4.55;;;;;;;;;;6243734;22;20184;-50
2024/03/18 13:11:57;;;;;;;5.97;4.75;;;;;;;;;;6243166;22;20680;-52
2024/03/18 13:14:24;;;;;;;7.05;5.55;;;;;;;;;;6243787;23;20169;-55
2024/03/18 13:16:53;;;;;;;6.82;6.15;;;;;;;;;;6243664;22;20517;-54
2024/03/18 13:19:20;;;;;;;7.25;5.40;;;;;;;;;;6243438;23;20179;-54
2024/03/18 13:21:48;;;;;;;7.00;6.32;;;;;;;;;;6243222;22;20502;-53
2024/03/18 13:24:17;;;;;;;6.72;5.25;;;;;;;;;;6243028;22;20197;-55
2024/03/18 13:26:45;;;;;;;5.28;4.40;;;;;;;;;;6243241;22;20230;-54
2024/03/18 13:29:14;;;;;;;5.30;4.65;;;;;;;;;;6244819;22;20173;-54
2024/03/18 13:31:42;;;;;;;6.00;5.10;;;;;;;;;;6245512;23;20514;-54
2024/03/18 13:34:10;;;;;;;7.50;6.65;;;;;;;;;;6245319;22;20173;-55
2024/03/18 13:36:37;;;;;;;5.55;5.05;;;;;;;;;;6245571;22;20173;-52
2024/03/18 13:39:06;;;;;;;6.18;5.13;;;;;;;;;;6245172;22;20215;-50
2024/03/18 13:41:35;;;;;;;5.22;4.72;;;;;;;;;;6245539;23;20179;-51
2024/03/18 13:44:03;;;;;;;7.68;5.32;;;;;;;;;;6245398;22;20239;-53
2024/03/18 13:46:32;;;;;;;5.43;4.93;;;;;;;;;;6245118;22;20491;-50
2024/03/18 13:49:03;;;;;;;7.53;5.88;;;;;;;;;;6245491;23;20197;-49
2024/03/18 13:51:31;;;;;;;5.85;4.68;;;;;;;;;;6245379;22;20208;-51
2024/03/18 13:53:59;;;;;;;5.72;4.68;;;;;;;;;;6245355;23;20200;-52
2024/03/18 13:56:26;;;;;;;5.38;4.43;;;;;;;;;;6244799;22;20260;-52
2024/03/18 13:58:55;;;;;;;5.93;5.32;;;;;;;;;;6244675;22;20280;-50
2024/03/18 14:01:22;;;;;;;4.57;4.18;;;;;;;;;;6244954;22;20256;-50
2024/03/18 14:03:51;;;;;;;5.68;5.13;;;;;;;;;;6245043;22;20193;-51
2024/03/18 14:06:19;;;;;;;5.47;4.78;;;;;;;;;;6245050;22;20231;-49
2024/03/18 14:08:46;;;;;;;5.88;4.93;;;;;;;;;;6244834;22;20193;-52
2024/03/18 14:11:15;;;;;;;4.25;3.85;;;;;;;;;;6244796;22;20173;-51
2024/03/18 14:13:42;;;;;;;4.65;4.22;;;;;;;;;;6244725;22;20175;-53
2024/03/18 14:16:12;;;;;;;4.65;4.25;;;;;;;;;;6244572;22;20184;-55
2024/03/18 14:18:41;;;;;;;4.25;3.85;;;;;;;;;;6245398;23;20201;-49
2024/03/18 14:21:09;;;;;;;6.57;4.50;;;;;;;;;;6245258;23;20331;-55
2024/03/18 14:23:37;;;;;;;4.90;4.45;;;;;;;;;;6245074;23;20734;-55
2024/03/18 14:26:07;;;;;;;4.90;4.05;;;;;;;;;;6244644;22;20174;-55
2024/03/18 14:28:34;;;;;;;4.40;3.83;;;;;;;;;;6245135;23;20201;-55
2024/03/18 14:31:02;;;;;;;3.90;3.60;;;;;;;;;;6244775;23;20184;-50
2024/03/18 14:33:31;;;;;;;5.32;4.45;;;;;;;;;;6244963;23;20650;-50
2024/03/18 14:35:58;;;;;;;6.65;5.40;;;;;;;;;;6244629;22;20179;-55
2024/03/18 14:38:26;;;;;;;7.15;5.45;;;;;;;;;;6244928;22;20204;-49
2024/03/18 14:40:53;;;;;;;4.40;4.00;;;;;;;;;;6244878;22;20215;-49
2024/03/18 14:43:21;;;;;;;3.95;3.65;;;;;;;;;;6243670;22;20293;-53
2024/03/18 14:45:48;;;;;;;7.75;5.63;;;;;;;;;;6244218;22;20173;-54
2024/03/18 14:48:16;;;;;;;5.55;4.85;;;;;;;;;;6244583;22;20272;-53
2024/03/18 14:50:46;;;;;;;8.55;5.35;;;;;;;;;;6244423;23;20223;-49
2024/03/18 14:53:13;;;;;;;5.32;3.92;;;;;;;;;;6243587;22;20715;-53
2024/03/18 14:55:41;;;;;;;5.85;5.28;;;;;;;;;;6244788;22;20757;-53
2024/03/18 14:58:08;;;;;;;5.90;4.82;;;;;;;;;;6243454;22;20529;-51